createdAt,value
2016-08-26T00:00:48.290Z,0
2016-08-26T00:01:48.669Z,0
2016-08-26T00:02:48.217Z,0
2016-08-26T00:03:47.491Z,0
2016-08-26T00:04:47.450Z,0
2016-08-26T00:05:48.152Z,0
2016-08-26T00:06:48.053Z,0
2016-08-26T00:07:48.213Z,0
2016-08-26T00:08:48.182Z,0
2016-08-26T00:09:47.238Z,0
2016-08-26T00:10:47.901Z,0
2016-08-26T00:11:47.833Z,0
2016-08-26T00:12:47.816Z,0
2016-08-26T00:13:47.763Z,0
2016-08-26T00:14:47.926Z,0
2016-08-26T00:15:47.681Z,0
2016-08-26T00:16:47.731Z,0
2016-08-26T00:17:47.093Z,0
2016-08-26T00:18:47.775Z,0
2016-08-26T00:19:45.417Z,0
2016-08-26T00:20:47.449Z,0
2016-08-26T00:21:47.408Z,0
2016-08-26T00:22:46.716Z,0
2016-08-26T00:23:47.519Z,0
2016-08-26T00:24:47.321Z,0
2016-08-26T00:25:47.276Z,0
2016-08-26T00:26:47.335Z,0
2016-08-26T00:27:46.480Z,0
2016-08-26T00:28:47.558Z,0
2016-08-26T00:29:45.715Z,0
2016-08-26T00:30:46.377Z,0
2016-08-26T00:31:47.021Z,0
2016-08-26T00:32:47.192Z,0
2016-08-26T00:33:46.232Z,0
2016-08-26T00:34:47.115Z,0
2016-08-26T00:35:47.260Z,0
2016-08-26T00:36:47.127Z,0
2016-08-26T00:37:46.450Z,0
2016-08-26T00:38:46.040Z,0
2016-08-26T00:39:46.007Z,0
2016-08-26T00:40:46.365Z,0
2016-08-26T00:41:46.287Z,0
2016-08-26T00:42:45.850Z,0
2016-08-26T00:43:46.508Z,0
2016-08-26T00:44:46.479Z,0
2016-08-26T00:45:46.838Z,0
2016-08-26T00:46:46.312Z,0
2016-08-26T00:47:46.773Z,0
2016-08-26T00:48:46.312Z,0
2016-08-26T00:49:46.263Z,0
2016-08-26T00:50:46.649Z,0
2016-08-26T00:51:46.471Z,0
2016-08-26T00:52:46.351Z,0
2016-08-26T00:53:46.296Z,0
2016-08-26T00:54:46.096Z,0
2016-08-26T00:55:46.224Z,0
2016-08-26T00:56:45.270Z,0
2016-08-26T00:57:45.260Z,0
2016-08-26T00:58:45.401Z,0
2016-08-26T00:59:45.855Z,0
2016-08-26T01:00:43.792Z,0
2016-08-26T01:01:45.962Z,0
2016-08-26T01:02:45.747Z,0
2016-08-26T01:03:45.686Z,0
2016-08-26T01:04:45.662Z,0
2016-08-26T01:05:45.590Z,0
2016-08-26T01:06:45.854Z,0
2016-08-26T01:07:45.556Z,0
2016-08-26T01:08:45.015Z,0
2016-08-26T01:09:45.542Z,0
2016-08-26T01:10:45.397Z,0
2016-08-26T01:11:45.340Z,0
2016-08-26T01:12:45.487Z,0
2016-08-26T01:13:45.414Z,0
2016-08-26T01:14:45.427Z,0
2016-08-26T01:15:45.173Z,0
2016-08-26T01:16:45.576Z,0
2016-08-26T01:17:45.116Z,0
2016-08-26T01:18:45.069Z,0
2016-08-26T01:19:44.508Z,0
2016-08-26T01:20:45.181Z,0
2016-08-26T01:21:44.242Z,0
2016-08-26T01:22:44.892Z,0
2016-08-26T01:23:45.090Z,0
2016-08-26T01:24:45.233Z,0
2016-08-26T01:25:45.021Z,0
2016-08-26T01:26:44.920Z,0
2016-08-26T01:27:44.977Z,0
2016-08-26T01:28:44.206Z,0
2016-08-26T01:29:45.025Z,0
2016-08-26T01:30:44.675Z,0
2016-08-26T01:31:45.145Z,0
2016-08-26T01:32:44.683Z,0
2016-08-26T01:33:43.740Z,0
2016-08-26T01:34:44.391Z,0
2016-08-26T01:35:43.996Z,0
2016-08-26T01:36:44.305Z,0
2016-08-26T01:37:44.466Z,0
2016-08-26T01:38:44.243Z,0
2016-08-26T01:39:44.175Z,0
2016-08-26T01:40:44.551Z,0
2016-08-26T01:41:44.084Z,0
2016-08-26T01:42:44.473Z,0
2016-08-26T01:43:43.527Z,0
2016-08-26T01:44:43.468Z,0
2016-08-26T01:45:43.674Z,0
2016-08-26T01:46:44.136Z,0
2016-08-26T01:47:43.834Z,0
2016-08-26T01:48:43.804Z,0
2016-08-26T01:49:42.376Z,0
2016-08-26T01:50:43.773Z,0
2016-08-26T01:51:43.187Z,0
2016-08-26T01:52:43.632Z,0
2016-08-26T01:53:43.294Z,0
2016-08-26T01:54:43.952Z,0
2016-08-26T01:55:43.765Z,0
2016-08-26T01:56:43.670Z,0
2016-08-26T01:57:43.424Z,0
2016-08-26T01:58:43.374Z,0
2016-08-26T01:59:41.242Z,0
2016-08-26T02:00:43.545Z,0
2016-08-26T02:01:43.272Z,0
2016-08-26T02:02:43.406Z,0
2016-08-26T02:03:42.195Z,0
2016-08-26T02:04:43.334Z,0
2016-08-26T02:05:43.325Z,0
2016-08-26T02:06:43.264Z,0
2016-08-26T02:07:42.496Z,0
2016-08-26T02:08:44.036Z,0
2016-08-26T02:09:42.008Z,0
2016-08-26T02:10:43.073Z,0
2016-08-26T02:11:42.836Z,0
2016-08-26T02:12:42.707Z,0
2016-08-26T02:13:42.976Z,0
2016-08-26T02:14:42.216Z,0
2016-08-26T02:15:43.072Z,0
2016-08-26T02:16:42.762Z,0
2016-08-26T02:17:42.900Z,0
2016-08-26T02:18:42.946Z,0
2016-08-26T02:19:42.579Z,0
2016-08-26T02:20:42.676Z,0
2016-08-26T02:21:42.055Z,0
2016-08-26T02:22:42.596Z,0
2016-08-26T02:23:42.777Z,0
2016-08-26T02:24:41.796Z,0
2016-08-26T02:25:42.256Z,0
2016-08-26T02:26:42.237Z,0
2016-08-26T02:27:42.358Z,0
2016-08-26T02:28:42.315Z,0
2016-08-26T02:29:42.089Z,0
2016-08-26T02:30:41.589Z,0
2016-08-26T02:31:41.295Z,0
2016-08-26T02:32:41.947Z,0
2016-08-26T02:33:42.149Z,0
2016-08-26T02:34:41.165Z,0
2016-08-26T02:35:42.409Z,0
2016-08-26T02:36:41.982Z,0
2016-08-26T02:37:41.837Z,0
2016-08-26T02:38:42.126Z,0
2016-08-26T02:39:41.899Z,0
2016-08-26T02:40:42.219Z,0
2016-08-26T02:41:41.551Z,0
2016-08-26T02:42:42.325Z,0
2016-08-26T02:43:40.788Z,0
2016-08-26T02:44:42.059Z,0
2016-08-26T02:45:40.007Z,0
2016-08-26T02:46:41.585Z,0
2016-08-26T02:47:41.053Z,0
2016-08-26T02:48:41.490Z,0
2016-08-26T02:49:41.228Z,0
2016-08-26T02:50:41.614Z,0
2016-08-26T02:51:41.156Z,0
2016-08-26T02:52:41.108Z,0
2016-08-26T02:53:41.304Z,0
2016-08-26T02:54:41.227Z,0
2016-08-26T02:55:40.371Z,0
2016-08-26T02:56:41.340Z,0
2016-08-26T02:57:40.195Z,0
2016-08-26T02:58:40.344Z,0
2016-08-26T02:59:41.013Z,0
2016-08-26T03:00:40.068Z,0
2016-08-26T03:01:41.133Z,0
2016-08-26T03:02:40.184Z,0
2016-08-26T03:03:40.838Z,0
2016-08-26T03:04:40.807Z,0
2016-08-26T03:05:40.561Z,0
2016-08-26T03:06:40.503Z,0
2016-08-26T03:07:40.483Z,0
2016-08-26T03:08:40.833Z,0
2016-08-26T03:09:39.865Z,0
2016-08-26T03:10:40.402Z,0
2016-08-26T03:11:40.301Z,0
2016-08-26T03:12:40.475Z,0
2016-08-26T03:13:39.700Z,0
2016-08-26T03:14:40.224Z,0
2016-08-26T03:15:40.134Z,0
2016-08-26T03:16:39.382Z,0
2016-08-26T03:17:40.033Z,0
2016-08-26T03:18:39.525Z,0
2016-08-26T03:19:40.584Z,0
2016-08-26T03:20:40.114Z,0
2016-08-26T03:21:39.175Z,0
2016-08-26T03:22:39.928Z,0
2016-08-26T03:23:40.254Z,0
2016-08-26T03:24:39.856Z,0
2016-08-26T03:25:39.800Z,0
2016-08-26T03:26:39.352Z,0
2016-08-26T03:27:39.260Z,0
2016-08-26T03:28:39.583Z,0
2016-08-26T03:29:38.855Z,0
2016-08-26T03:30:39.525Z,0
2016-08-26T03:31:38.802Z,0
2016-08-26T03:32:38.707Z,0
2016-08-26T03:33:39.376Z,0
2016-08-26T03:34:39.325Z,0
2016-08-26T03:35:39.484Z,0
2016-08-26T03:36:39.259Z,0
2016-08-26T03:37:39.453Z,0
2016-08-26T03:38:38.484Z,0
2016-08-26T03:39:39.335Z,0
2016-08-26T03:40:39.483Z,0
2016-08-26T03:41:38.351Z,0
2016-08-26T03:42:39.185Z,0
2016-08-26T03:43:38.964Z,0
2016-08-26T03:44:39.102Z,0
2016-08-26T03:45:38.874Z,0
2016-08-26T03:46:38.807Z,0
2016-08-26T03:47:38.305Z,0
2016-08-26T03:48:38.455Z,0
2016-08-26T03:49:38.686Z,0
2016-08-26T03:50:37.967Z,0
2016-08-26T03:51:37.904Z,0
2016-08-26T03:52:38.593Z,0
2016-08-26T03:53:38.527Z,0
2016-08-26T03:54:37.074Z,0
2016-08-26T03:55:38.655Z,0
2016-08-26T03:56:38.583Z,0
2016-08-26T03:57:37.640Z,0
2016-08-26T03:58:37.611Z,0
2016-08-26T03:59:38.264Z,0
2016-08-26T04:00:38.203Z,0
2016-08-26T04:01:38.172Z,0
2016-08-26T04:02:38.544Z,0
2016-08-26T04:03:38.093Z,0
2016-08-26T04:04:37.554Z,0
2016-08-26T04:05:38.034Z,0
2016-08-26T04:06:36.065Z,0
2016-08-26T04:07:38.125Z,0
2016-08-26T04:08:38.077Z,0
2016-08-26T04:09:37.365Z,0
2016-08-26T04:10:37.803Z,0
2016-08-26T04:11:37.771Z,0
2016-08-26T04:12:37.715Z,0
2016-08-26T04:13:36.695Z,0
2016-08-26T04:14:36.493Z,0
2016-08-26T04:15:37.288Z,0
2016-08-26T04:16:37.793Z,0
2016-08-26T04:17:37.059Z,0
2016-08-26T04:18:37.352Z,0
2016-08-26T04:19:36.214Z,0
2016-08-26T04:20:36.716Z,0
2016-08-26T04:21:37.391Z,0
2016-08-26T04:22:38.690Z,0
2016-08-26T04:23:37.310Z,0
2016-08-26T04:24:37.196Z,0
2016-08-26T04:25:37.354Z,0
2016-08-26T04:26:36.835Z,0
2016-08-26T04:27:36.791Z,0
2016-08-26T04:28:37.266Z,0
2016-08-26T04:29:37.235Z,0
2016-08-26T04:30:36.481Z,0
2016-08-26T04:31:36.470Z,0
2016-08-26T04:32:37.021Z,0
2016-08-26T04:33:36.869Z,0
2016-08-26T04:34:37.075Z,0
2016-08-26T04:35:37.035Z,0
2016-08-26T04:36:36.915Z,0
2016-08-26T04:37:36.632Z,0
2016-08-26T04:38:36.138Z,0
2016-08-26T04:39:35.383Z,0
2016-08-26T04:40:34.629Z,0
2016-08-26T04:41:36.494Z,0
2016-08-26T04:42:35.756Z,0
2016-08-26T04:43:35.608Z,0
2016-08-26T04:44:35.649Z,0
2016-08-26T04:45:34.894Z,0
2016-08-26T04:46:36.373Z,0
2016-08-26T04:47:34.824Z,0
2016-08-26T04:48:36.170Z,0
2016-08-26T04:49:35.415Z,0
2016-08-26T04:50:35.374Z,0
2016-08-26T04:51:36.054Z,5
2016-08-26T04:52:36.202Z,5
2016-08-26T04:53:36.170Z,5
2016-08-26T04:54:35.925Z,5
2016-08-26T04:55:35.885Z,5
2016-08-26T04:56:35.336Z,5
2016-08-26T04:57:34.437Z,5
2016-08-26T04:58:35.753Z,5
2016-08-26T04:59:35.927Z,5
2016-08-26T05:00:35.772Z,5
2016-08-26T05:01:35.834Z,5
2016-08-26T05:02:36.006Z,5
2016-08-26T05:03:36.182Z,5
2016-08-26T05:04:34.821Z,5
2016-08-26T05:05:32.688Z,5
2016-08-26T05:06:35.412Z,5
2016-08-26T05:07:33.958Z,5
2016-08-26T05:08:35.527Z,5
2016-08-26T05:09:35.483Z,5
2016-08-26T05:10:34.025Z,10
2016-08-26T05:11:35.395Z,10
2016-08-26T05:12:35.343Z,10
2016-08-26T05:13:35.175Z,10
2016-08-26T05:14:34.377Z,10
2016-08-26T05:15:35.237Z,10
2016-08-26T05:16:34.397Z,10
2016-08-26T05:17:34.946Z,10
2016-08-26T05:18:33.725Z,10
2016-08-26T05:19:34.600Z,10
2016-08-26T05:20:35.036Z,10
2016-08-26T05:21:33.586Z,10
2016-08-26T05:22:34.473Z,10
2016-08-26T05:23:34.754Z,10
2016-08-26T05:24:33.955Z,10
2016-08-26T05:25:34.278Z,10
2016-08-26T05:26:34.566Z,15
2016-08-26T05:27:34.923Z,15
2016-08-26T05:28:33.986Z,15
2016-08-26T05:29:33.057Z,15
2016-08-26T05:30:33.707Z,15
2016-08-26T05:31:34.542Z,15
2016-08-26T05:32:34.503Z,15
2016-08-26T05:33:34.638Z,15
2016-08-26T05:34:33.533Z,15
2016-08-26T05:35:34.372Z,15
2016-08-26T05:36:33.645Z,15
2016-08-26T05:37:32.714Z,15
2016-08-26T05:38:33.349Z,15
2016-08-26T05:39:33.493Z,15
2016-08-26T05:40:33.667Z,15
2016-08-26T05:41:33.931Z,15
2016-08-26T05:42:33.880Z,20
2016-08-26T05:43:34.033Z,20
2016-08-26T05:44:33.103Z,20
2016-08-26T05:45:33.744Z,20
2016-08-26T05:46:32.514Z,20
2016-08-26T05:47:33.025Z,20
2016-08-26T05:48:33.096Z,20
2016-08-26T05:49:32.888Z,20
2016-08-26T05:50:32.387Z,20
2016-08-26T05:51:33.018Z,20
2016-08-26T05:52:32.458Z,20
2016-08-26T05:53:32.914Z,20
2016-08-26T05:54:31.964Z,20
2016-08-26T05:55:31.958Z,20
2016-08-26T05:56:34.318Z,20
2016-08-26T05:57:33.263Z,20
2016-08-26T05:58:33.204Z,20
2016-08-26T05:59:32.438Z,25
2016-08-26T06:00:33.122Z,25
2016-08-26T06:01:32.575Z,25
2016-08-26T06:02:33.024Z,25
2016-08-26T06:03:32.345Z,25
2016-08-26T06:04:33.128Z,25
2016-08-26T06:05:32.941Z,25
2016-08-26T06:06:32.362Z,25
2016-08-26T06:07:32.798Z,25
2016-08-26T06:08:32.971Z,30
2016-08-26T06:09:32.033Z,30
2016-08-26T06:10:31.984Z,30
2016-08-26T06:11:31.988Z,30
2016-08-26T06:12:32.864Z,30
2016-08-26T06:13:32.758Z,30
2016-08-26T06:14:32.804Z,30
2016-08-26T06:15:31.764Z,30
2016-08-26T06:16:32.624Z,30
2016-08-26T06:17:31.904Z,35
2016-08-26T06:18:32.523Z,35
2016-08-26T06:19:32.525Z,35
2016-08-26T06:20:32.274Z,35
2016-08-26T06:21:32.394Z,35
2016-08-26T06:22:32.175Z,30
2016-08-26T06:23:32.116Z,35
2016-08-26T06:24:32.089Z,30
2016-08-26T06:25:32.045Z,30
2016-08-26T06:26:31.702Z,30
2016-08-26T06:27:30.549Z,35
2016-08-26T06:28:32.111Z,35
2016-08-26T06:29:30.687Z,35
2016-08-26T06:30:30.657Z,40
2016-08-26T06:31:31.122Z,40
2016-08-26T06:32:31.751Z,40
2016-08-26T06:33:31.923Z,40
2016-08-26T06:34:30.966Z,40
2016-08-26T06:35:31.617Z,35
2016-08-26T06:36:30.880Z,40
2016-08-26T06:37:31.745Z,45
2016-08-26T06:38:30.817Z,45
2016-08-26T06:39:30.445Z,45
2016-08-26T06:40:30.020Z,40
2016-08-26T06:41:31.362Z,30
2016-08-26T06:42:30.851Z,35
2016-08-26T06:43:31.523Z,50
2016-08-26T06:44:31.294Z,50
2016-08-26T06:45:31.233Z,50
2016-08-26T06:46:31.604Z,50
2016-08-26T06:47:29.439Z,50
2016-08-26T06:48:31.213Z,50
2016-08-26T06:49:30.334Z,45
2016-08-26T06:50:30.692Z,40
2016-08-26T06:51:31.154Z,40
2016-08-26T06:52:30.413Z,45
2016-08-26T06:53:30.933Z,50
2016-08-26T06:54:31.374Z,55
2016-08-26T06:55:30.821Z,50
2016-08-26T06:56:30.113Z,50
2016-08-26T06:57:30.915Z,50
2016-08-26T06:58:29.976Z,50
2016-08-26T06:59:29.928Z,55
2016-08-26T07:00:30.056Z,55
2016-08-26T07:01:30.043Z,55
2016-08-26T07:02:30.714Z,60
2016-08-26T07:03:30.682Z,55
2016-08-26T07:04:29.766Z,60
2016-08-26T07:05:28.587Z,65
2016-08-26T07:06:30.332Z,65
2016-08-26T07:07:30.752Z,65
2016-08-26T07:08:30.832Z,65
2016-08-26T07:09:29.922Z,65
2016-08-26T07:10:30.852Z,70
2016-08-26T07:11:29.630Z,70
2016-08-26T07:12:29.590Z,70
2016-08-26T07:13:28.854Z,75
2016-08-26T07:14:29.391Z,75
2016-08-26T07:15:30.189Z,70
2016-08-26T07:16:29.917Z,75
2016-08-26T07:17:30.283Z,80
2016-08-26T07:18:29.353Z,65
2016-08-26T07:19:29.985Z,75
2016-08-26T07:20:29.068Z,70
2016-08-26T07:21:30.156Z,70
2016-08-26T07:22:28.988Z,70
2016-08-26T07:23:29.653Z,60
2016-08-26T07:24:29.290Z,50
2016-08-26T07:25:29.610Z,80
2016-08-26T07:26:29.548Z,80
2016-08-26T07:27:29.510Z,80
2016-08-26T07:28:29.322Z,85
2016-08-26T07:29:28.715Z,85
2016-08-26T07:30:29.484Z,80
2016-08-26T07:31:29.397Z,70
2016-08-26T07:32:29.596Z,80
2016-08-26T07:33:29.359Z,80
2016-08-26T07:34:28.683Z,75
2016-08-26T07:35:28.423Z,65
2016-08-26T07:36:27.748Z,60
2016-08-26T07:37:29.062Z,70
2016-08-26T07:38:29.094Z,90
2016-08-26T07:39:28.282Z,75
2016-08-26T07:40:28.352Z,80
2016-08-26T07:41:28.423Z,90
2016-08-26T07:42:29.095Z,90
2016-08-26T07:43:28.511Z,95
2016-08-26T07:44:29.003Z,95
2016-08-26T07:45:28.817Z,95
2016-08-26T07:46:28.001Z,90
2016-08-26T07:47:27.962Z,95
2016-08-26T07:48:27.280Z,95
2016-08-26T07:49:27.275Z,90
2016-08-26T07:50:28.524Z,90
2016-08-26T07:51:28.471Z,80
2016-08-26T07:52:26.543Z,95
2016-08-26T07:53:28.672Z,90
2016-08-26T07:54:26.964Z,75
2016-08-26T07:55:26.944Z,100
2016-08-26T07:56:28.540Z,85
2016-08-26T07:57:29.171Z,80
2016-08-26T07:58:27.534Z,100
2016-08-26T07:59:27.687Z,105
2016-08-26T08:00:28.125Z,105
2016-08-26T08:01:28.331Z,105
2016-08-26T08:02:27.543Z,105
2016-08-26T08:03:28.220Z,105
2016-08-26T08:04:28.005Z,105
2016-08-26T08:05:27.260Z,105
2016-08-26T08:06:27.193Z,105
2016-08-26T08:07:27.132Z,110
2016-08-26T08:08:25.870Z,110
2016-08-26T08:09:27.384Z,110
2016-08-26T08:10:26.304Z,100
2016-08-26T08:11:27.920Z,110
2016-08-26T08:12:27.618Z,110
2016-08-26T08:13:25.677Z,110
2016-08-26T08:14:26.869Z,105
2016-08-26T08:15:28.102Z,110
2016-08-26T08:16:26.752Z,115
2016-08-26T08:17:27.457Z,110
2016-08-26T08:18:27.377Z,110
2016-08-26T08:19:26.664Z,110
2016-08-26T08:20:26.714Z,110
2016-08-26T08:21:27.469Z,110
2016-08-26T08:22:26.575Z,110
2016-08-26T08:23:27.260Z,105
2016-08-26T08:24:27.175Z,105
2016-08-26T08:25:26.453Z,110
2016-08-26T08:26:26.572Z,105
2016-08-26T08:27:26.350Z,110
2016-08-26T08:28:27.027Z,110
2016-08-26T08:29:25.547Z,115
2016-08-26T08:30:26.297Z,115
2016-08-26T08:31:26.186Z,115
2016-08-26T08:32:26.396Z,115
2016-08-26T08:33:25.436Z,115
2016-08-26T08:34:27.143Z,115
2016-08-26T08:35:26.931Z,115
2016-08-26T08:36:26.694Z,115
2016-08-26T08:37:25.258Z,115
2016-08-26T08:38:26.614Z,115
2016-08-26T08:39:26.953Z,110
2016-08-26T08:40:26.503Z,110
2016-08-26T08:41:25.825Z,100
2016-08-26T08:42:25.937Z,110
2016-08-26T08:43:26.675Z,115
2016-08-26T08:44:26.347Z,110
2016-08-26T08:45:25.707Z,115
2016-08-26T08:46:25.654Z,115
2016-08-26T08:47:24.317Z,100
2016-08-26T08:48:25.440Z,115
2016-08-26T08:49:24.867Z,115
2016-08-26T08:50:24.128Z,115
2016-08-26T08:51:26.172Z,115
2016-08-26T08:52:24.817Z,115
2016-08-26T08:53:25.599Z,115
2016-08-26T08:54:23.920Z,115
2016-08-26T08:55:25.208Z,115
2016-08-26T08:56:25.912Z,105
2016-08-26T08:57:25.021Z,105
2016-08-26T08:58:24.599Z,115
2016-08-26T08:59:25.279Z,115
2016-08-26T09:00:25.761Z,115
2016-08-26T09:01:24.268Z,115
2016-08-26T09:02:25.736Z,115
2016-08-26T09:03:25.627Z,115
2016-08-26T09:04:25.693Z,115
2016-08-26T09:05:25.731Z,115
2016-08-26T09:06:24.990Z,115
2016-08-26T09:07:24.788Z,115
2016-08-26T09:08:25.858Z,115
2016-08-26T09:09:23.472Z,115
2016-08-26T09:10:24.611Z,115
2016-08-26T09:11:25.255Z,115
2016-08-26T09:12:24.636Z,115
2016-08-26T09:13:24.897Z,115
2016-08-26T09:14:23.774Z,115
2016-08-26T09:15:24.445Z,115
2016-08-26T09:16:24.665Z,115
2016-08-26T09:17:24.388Z,115
2016-08-26T09:18:25.744Z,115
2016-08-26T09:19:24.282Z,115
2016-08-26T09:20:24.952Z,115
2016-08-26T09:21:24.247Z,115
2016-08-26T09:22:24.255Z,115
2016-08-26T09:23:24.810Z,115
2016-08-26T09:24:24.083Z,115
2016-08-26T09:25:24.103Z,115
2016-08-26T09:26:23.962Z,115
2016-08-26T09:27:22.602Z,115
2016-08-26T09:28:24.710Z,115
2016-08-26T09:29:24.614Z,115
2016-08-26T09:30:23.818Z,115
2016-08-26T09:31:22.575Z,115
2016-08-26T09:32:24.025Z,115
2016-08-26T09:33:23.706Z,115
2016-08-26T09:34:24.378Z,115
2016-08-26T09:35:23.666Z,115
2016-08-26T09:36:23.816Z,115
2016-08-26T09:37:24.357Z,110
2016-08-26T09:38:23.526Z,110
2016-08-26T09:39:23.693Z,110
2016-08-26T09:40:23.677Z,110
2016-08-26T09:41:24.133Z,110
2016-08-26T09:42:24.455Z,110
2016-08-26T09:43:23.385Z,115
2016-08-26T09:44:23.465Z,110
2016-08-26T09:45:23.495Z,110
2016-08-26T09:46:23.195Z,110
2016-08-26T09:47:23.465Z,110
2016-08-26T09:48:23.805Z,110
2016-08-26T09:49:24.022Z,110
2016-08-26T09:50:22.022Z,110
2016-08-26T09:51:23.918Z,110
2016-08-26T09:52:23.720Z,105
2016-08-26T09:53:23.394Z,110
2016-08-26T09:54:22.909Z,110
2016-08-26T09:55:23.614Z,110
2016-08-26T09:56:23.120Z,110
2016-08-26T09:57:23.521Z,110
2016-08-26T09:58:22.246Z,110
2016-08-26T09:59:22.693Z,110
2016-08-26T10:00:25.183Z,110
2016-08-26T10:01:22.970Z,110
2016-08-26T10:02:23.401Z,110
2016-08-26T10:03:22.585Z,110
2016-08-26T10:04:22.582Z,110
2016-08-26T10:05:23.550Z,110
2016-08-26T10:06:21.690Z,105
2016-08-26T10:07:23.059Z,105
2016-08-26T10:08:22.338Z,105
2016-08-26T10:09:22.794Z,105
2016-08-26T10:10:25.367Z,105
2016-08-26T10:11:23.420Z,105
2016-08-26T10:12:23.087Z,105
2016-08-26T10:13:21.706Z,105
2016-08-26T10:14:22.818Z,105
2016-08-26T10:15:21.394Z,105
2016-08-26T10:16:22.051Z,105
2016-08-26T10:17:21.491Z,105
2016-08-26T10:18:21.994Z,105
2016-08-26T10:19:22.115Z,105
2016-08-26T10:20:21.593Z,105
2016-08-26T10:21:22.570Z,105
2016-08-26T10:22:20.469Z,105
2016-08-26T10:23:21.743Z,105
2016-08-26T10:24:22.455Z,105
2016-08-26T10:25:22.468Z,105
2016-08-26T10:26:21.832Z,80
2016-08-26T10:27:21.817Z,100
2016-08-26T10:28:21.070Z,105
2016-08-26T10:29:22.680Z,105
2016-08-26T10:30:21.894Z,105
2016-08-26T10:31:21.449Z,95
2016-08-26T10:32:20.891Z,80
2016-08-26T10:33:22.524Z,60
2016-08-26T10:34:20.834Z,85
2016-08-26T10:35:20.630Z,90
2016-08-26T10:36:21.450Z,100
2016-08-26T10:37:21.250Z,100
2016-08-26T10:38:21.549Z,105
2016-08-26T10:39:21.503Z,100
2016-08-26T10:40:21.943Z,100
2016-08-26T10:41:20.677Z,100
2016-08-26T10:42:21.802Z,100
2016-08-26T10:43:21.715Z,100
2016-08-26T10:44:21.161Z,100
2016-08-26T10:45:21.853Z,100
2016-08-26T10:46:21.573Z,95
2016-08-26T10:47:20.846Z,90
2016-08-26T10:48:21.586Z,85
2016-08-26T10:49:21.459Z,90
2016-08-26T10:50:20.940Z,90
2016-08-26T10:51:20.903Z,95
2016-08-26T10:52:20.894Z,90
2016-08-26T10:53:21.302Z,95
2016-08-26T10:54:20.612Z,100
2016-08-26T10:55:20.519Z,70
2016-08-26T10:56:20.451Z,75
2016-08-26T10:57:21.578Z,100
2016-08-26T10:58:20.443Z,95
2016-08-26T10:59:21.059Z,80
2016-08-26T11:00:21.017Z,75
2016-08-26T11:01:20.266Z,60
2016-08-26T11:02:20.226Z,55
2016-08-26T11:03:19.697Z,75
2016-08-26T11:04:20.393Z,85
2016-08-26T11:05:20.128Z,90
2016-08-26T11:06:20.801Z,100
2016-08-26T11:07:20.105Z,75
2016-08-26T11:08:19.814Z,65
2016-08-26T11:09:20.724Z,85
2016-08-26T11:10:21.791Z,70
2016-08-26T11:11:20.853Z,65
2016-08-26T11:12:19.151Z,75
2016-08-26T11:13:18.435Z,95
2016-08-26T11:14:19.366Z,75
2016-08-26T11:15:19.727Z,80
2016-08-26T11:16:18.973Z,75
2016-08-26T11:17:19.724Z,105
2016-08-26T11:18:18.403Z,110
2016-08-26T11:19:18.876Z,110
2016-08-26T11:20:19.582Z,90
2016-08-26T11:21:20.667Z,95
2016-08-26T11:22:19.644Z,110
2016-08-26T11:23:19.469Z,100
2016-08-26T11:24:18.908Z,85
2016-08-26T11:25:17.997Z,95
2016-08-26T11:26:19.370Z,110
2016-08-26T11:27:19.524Z,90
2016-08-26T11:28:19.495Z,100
2016-08-26T11:29:20.267Z,100
2016-08-26T11:30:19.376Z,80
2016-08-26T11:31:19.394Z,80
2016-08-26T11:32:19.803Z,80
2016-08-26T11:33:19.082Z,85
2016-08-26T11:34:18.687Z,95
2016-08-26T11:35:19.871Z,85
2016-08-26T11:36:19.667Z,90
2016-08-26T11:37:19.788Z,80
2016-08-26T11:38:19.817Z,90
2016-08-26T11:39:19.023Z,100
2016-08-26T11:40:19.709Z,100
2016-08-26T11:41:18.732Z,100
2016-08-26T11:42:19.824Z,85
2016-08-26T11:43:18.658Z,105
2016-08-26T11:44:19.601Z,105
2016-08-26T11:45:19.017Z,110
2016-08-26T11:46:18.582Z,115
2016-08-26T11:47:17.803Z,120
2016-08-26T11:48:19.475Z,110
2016-08-26T11:49:19.204Z,100
2016-08-26T11:50:19.486Z,100
2016-08-26T11:51:17.701Z,95
2016-08-26T11:52:19.103Z,120
2016-08-26T11:53:19.241Z,105
2016-08-26T11:54:17.800Z,100
2016-08-26T11:55:19.088Z,110
2016-08-26T11:56:19.306Z,115
2016-08-26T11:57:18.837Z,110
2016-08-26T11:58:18.179Z,110
2016-08-26T11:59:18.083Z,115
2016-08-26T12:00:18.673Z,115
2016-08-26T12:01:19.072Z,115
2016-08-26T12:02:21.084Z,115
2016-08-26T12:03:17.315Z,115
2016-08-26T12:04:18.545Z,115
2016-08-26T12:05:16.635Z,110
2016-08-26T12:06:19.191Z,85
2016-08-26T12:07:19.693Z,95
2016-08-26T12:08:19.116Z,110
2016-08-26T12:09:17.971Z,115
2016-08-26T12:10:18.738Z,110
2016-08-26T12:11:18.963Z,110
2016-08-26T12:12:18.586Z,110
2016-08-26T12:13:17.843Z,110
2016-08-26T12:14:18.458Z,110
2016-08-26T12:15:18.283Z,110
2016-08-26T12:16:18.311Z,110
2016-08-26T12:17:18.274Z,115
2016-08-26T12:18:17.335Z,110
2016-08-26T12:19:17.310Z,115
2016-08-26T12:20:17.276Z,115
2016-08-26T12:21:17.729Z,115
2016-08-26T12:22:18.068Z,115
2016-08-26T12:23:17.488Z,115
2016-08-26T12:24:17.708Z,115
2016-08-26T12:25:17.807Z,115
2016-08-26T12:26:18.010Z,100
2016-08-26T12:27:17.916Z,115
2016-08-26T12:28:16.573Z,115
2016-08-26T12:29:16.958Z,115
2016-08-26T12:30:16.377Z,115
2016-08-26T12:31:16.844Z,115
2016-08-26T12:32:16.828Z,120
2016-08-26T12:33:16.974Z,120
2016-08-26T12:34:17.124Z,120
2016-08-26T12:35:17.440Z,120
2016-08-26T12:36:17.899Z,120
2016-08-26T12:37:17.325Z,120
2016-08-26T12:38:15.903Z,120
2016-08-26T12:39:16.858Z,115
2016-08-26T12:40:16.749Z,120
2016-08-26T12:41:17.398Z,115
2016-08-26T12:42:16.134Z,115
2016-08-26T12:43:16.501Z,115
2016-08-26T12:44:16.400Z,115
2016-08-26T12:45:16.359Z,115
2016-08-26T12:46:15.802Z,115
2016-08-26T12:47:15.768Z,115
2016-08-26T12:48:16.567Z,115
2016-08-26T12:49:16.920Z,120
2016-08-26T12:50:15.150Z,120
2016-08-26T12:51:17.087Z,120
2016-08-26T12:52:15.774Z,115
2016-08-26T12:53:16.730Z,120
2016-08-26T12:54:15.884Z,120
2016-08-26T12:55:17.109Z,120
2016-08-26T12:56:14.773Z,120
2016-08-26T12:57:16.109Z,120
2016-08-26T12:58:15.574Z,120
2016-08-26T12:59:15.925Z,115
2016-08-26T13:00:15.795Z,115
2016-08-26T13:01:16.181Z,120
2016-08-26T13:02:15.929Z,120
2016-08-26T13:03:16.358Z,120
2016-08-26T13:04:14.896Z,125
2016-08-26T13:05:15.882Z,125
2016-08-26T13:06:15.535Z,125
2016-08-26T13:07:16.380Z,125
2016-08-26T13:08:15.449Z,125
2016-08-26T13:09:15.661Z,130
2016-08-26T13:10:14.902Z,125
2016-08-26T13:11:15.393Z,125
2016-08-26T13:12:16.045Z,120
2016-08-26T13:13:15.294Z,125
2016-08-26T13:14:15.245Z,125
2016-08-26T13:15:15.387Z,125
2016-08-26T13:16:14.844Z,130
2016-08-26T13:17:15.561Z,130
2016-08-26T13:18:15.977Z,130
2016-08-26T13:19:15.857Z,125
2016-08-26T13:20:14.505Z,125
2016-08-26T13:21:16.302Z,130
2016-08-26T13:22:15.848Z,130
2016-08-26T13:23:13.592Z,130
2016-08-26T13:24:16.139Z,135
2016-08-26T13:25:14.429Z,135
2016-08-26T13:26:13.815Z,130
2016-08-26T13:27:15.376Z,130
2016-08-26T13:28:15.141Z,130
2016-08-26T13:29:14.710Z,130
2016-08-26T13:30:14.885Z,135
2016-08-26T13:31:13.886Z,135
2016-08-26T13:32:13.171Z,135
2016-08-26T13:33:15.769Z,135
2016-08-26T13:34:14.515Z,130
2016-08-26T13:35:15.597Z,140
2016-08-26T13:36:13.726Z,135
2016-08-26T13:37:13.680Z,120
2016-08-26T13:38:13.921Z,125
2016-08-26T13:39:12.898Z,130
2016-08-26T13:40:15.270Z,130
2016-08-26T13:41:14.258Z,135
2016-08-26T13:42:14.366Z,135
2016-08-26T13:43:15.007Z,135
2016-08-26T13:44:14.860Z,135
2016-08-26T13:45:15.024Z,130
2016-08-26T13:46:15.056Z,140
2016-08-26T13:47:14.892Z,140
2016-08-26T13:48:14.095Z,140
2016-08-26T13:49:14.741Z,135
2016-08-26T13:50:15.456Z,135
2016-08-26T13:51:13.212Z,140
2016-08-26T13:52:13.826Z,145
2016-08-26T13:53:14.797Z,145
2016-08-26T13:54:15.286Z,145
2016-08-26T13:55:13.736Z,145
2016-08-26T13:56:14.827Z,145
2016-08-26T13:57:13.808Z,145
2016-08-26T13:58:13.684Z,150
2016-08-26T13:59:13.557Z,155
2016-08-26T14:00:13.514Z,155
2016-08-26T14:01:13.494Z,155
2016-08-26T14:02:12.098Z,155
2016-08-26T14:03:13.632Z,155
2016-08-26T14:04:13.558Z,155
2016-08-26T14:05:13.979Z,155
2016-08-26T14:06:12.809Z,160
2016-08-26T14:07:14.183Z,155
2016-08-26T14:08:13.472Z,160
2016-08-26T14:09:13.412Z,160
2016-08-26T14:10:13.166Z,160
2016-08-26T14:11:13.469Z,160
2016-08-26T14:12:12.500Z,155
2016-08-26T14:13:13.932Z,140
2016-08-26T14:14:13.703Z,140